createdAt,value
2022-09-16T00:00:45.219Z,99.90
2022-09-16T00:05:53.291Z,99.90
2022-09-16T00:11:00.491Z,99.90
2022-09-16T00:16:08.625Z,99.90
2022-09-16T00:21:11.453Z,99.90
2022-09-16T00:26:14.001Z,99.90
2022-09-16T00:31:17.042Z,99.90
2022-09-16T00:36:20.357Z,99.90
2022-09-16T00:41:26.162Z,99.90
2022-09-16T00:46:51.655Z,99.90
2022-09-16T00:51:59.583Z,99.90
2022-09-16T00:57:03.235Z,99.90
2022-09-16T01:02:13.231Z,99.90
2022-09-16T01:07:16.163Z,99.90
2022-09-16T01:12:18.636Z,99.90
2022-09-16T01:17:28.182Z,99.90
2022-09-16T01:22:51.513Z,99.90
2022-09-16T01:28:24.525Z,99.90
2022-09-16T01:33:30.055Z,99.90
2022-09-16T01:39:00.118Z,99.90
2022-09-16T01:44:10.815Z,99.90
2022-09-16T01:49:48.733Z,99.90
2022-09-16T01:54:59.795Z,99.90
2022-09-16T02:00:10.912Z,99.90
2022-09-16T02:05:19.009Z,99.90
2022-09-16T02:10:35.592Z,99.90
2022-09-16T02:15:42.262Z,99.90
2022-09-16T02:20:46.677Z,99.90
2022-09-16T02:25:50.508Z,99.90
2022-09-16T02:30:56.880Z,99.90
2022-09-16T02:36:00.881Z,99.90
2022-09-16T02:41:03.575Z,99.90
2022-09-16T02:46:27.558Z,99.90
2022-09-16T02:51:42.422Z,99.90
2022-09-16T02:56:44.966Z,99.90
2022-09-16T03:01:47.491Z,99.90
2022-09-16T03:06:50.130Z,99.90
2022-09-16T03:12:08.758Z,99.90
2022-09-16T03:17:28.469Z,99.90
2022-09-16T03:22:43.918Z,99.90
2022-09-16T03:28:04.248Z,99.90
2022-09-16T03:33:15.439Z,99.90
2022-09-16T03:38:19.852Z,99.90
2022-09-16T03:43:22.396Z,99.90
2022-09-16T03:48:24.961Z,99.90
2022-09-16T03:53:27.267Z,99.90
2022-09-16T03:58:29.624Z,99.90
2022-09-16T04:03:33.403Z,99.90
2022-09-16T04:08:37.430Z,99.90
2022-09-16T04:13:39.833Z,99.90
2022-09-16T04:18:42.393Z,99.90
2022-09-16T04:23:45.080Z,99.90
2022-09-16T04:28:48.157Z,99.90
2022-09-16T04:33:51.079Z,99.90
2022-09-16T04:38:53.757Z,99.90
2022-09-16T04:43:58.280Z,99.90
2022-09-16T04:49:01.063Z,99.90
2022-09-16T04:54:03.701Z,99.90
2022-09-16T04:59:06.773Z,99.90
2022-09-16T05:04:10.567Z,99.90
2022-09-16T05:09:13.671Z,99.90
2022-09-16T05:14:18.461Z,99.90
2022-09-16T05:19:20.936Z,99.90
2022-09-16T05:24:23.364Z,99.90
2022-09-16T05:29:25.788Z,99.90
2022-09-16T05:34:28.852Z,99.90
2022-09-16T05:39:31.242Z,99.90
2022-09-16T05:44:34.086Z,99.90
2022-09-16T05:49:37.216Z,99.90
2022-09-16T05:54:40.618Z,99.90
2022-09-16T05:59:43.137Z,99.90
2022-09-16T06:04:45.580Z,99.90
2022-09-16T06:09:48.172Z,99.90
2022-09-16T06:14:50.673Z,99.90
2022-09-16T06:19:53.163Z,99.90
2022-09-16T06:24:55.577Z,99.90
2022-09-16T06:29:57.996Z,99.90
2022-09-16T06:35:00.454Z,99.90
2022-09-16T06:40:03.136Z,99.90
2022-09-16T06:45:06.755Z,99.90
2022-09-16T06:50:09.615Z,99.90
2022-09-16T06:55:12.053Z,99.90
2022-09-16T07:00:14.780Z,99.90
2022-09-16T07:05:17.180Z,99.90
2022-09-16T07:10:19.542Z,99.90
2022-09-16T07:15:22.116Z,99.90
2022-09-16T07:20:24.514Z,99.90
2022-09-16T07:25:31.395Z,99.90
2022-09-16T07:30:36.372Z,99.90
2022-09-16T07:35:39.717Z,99.90
2022-09-16T07:40:42.325Z,99.90
2022-09-16T07:45:44.923Z,99.80
2022-09-16T07:50:58.980Z,99.90
2022-09-16T07:56:03.728Z,99.90
2022-09-16T08:01:08.009Z,99.90
2022-09-16T08:06:16.528Z,99.10
2022-09-16T08:11:19.593Z,99.90
2022-09-16T08:16:22.972Z,99.40
2022-09-16T08:21:28.874Z,99.90
2022-09-16T08:26:31.470Z,99.00
2022-09-16T08:31:34.176Z,98.10
2022-09-16T08:36:37.373Z,97.30
2022-09-16T08:41:48.876Z,99.90
2022-09-16T08:47:01.812Z,99.10
2022-09-16T08:52:13.514Z,99.90
2022-09-16T08:57:25.634Z,99.90
2022-09-16T09:02:54.470Z,99.80
2022-09-16T09:08:09.222Z,99.90
2022-09-16T09:13:31.705Z,99.50
2022-09-16T09:18:57.733Z,90.80
2022-09-16T09:24:00.082Z,97.40
2022-09-16T09:29:14.024Z,99.90
2022-09-16T09:34:31.676Z,99.90
2022-09-16T09:40:01.302Z,98.80
2022-09-16T09:45:05.435Z,99.90
2022-09-16T09:50:17.113Z,95.70
2022-09-16T09:55:22.496Z,99.90
2022-09-16T10:00:25.044Z,99.90
2022-09-16T10:05:29.676Z,99.90
2022-09-16T10:10:35.208Z,99.90
2022-09-16T10:15:39.185Z,99.90
2022-09-16T10:20:59.590Z,97.40
2022-09-16T10:26:26.099Z,94.30
2022-09-16T10:31:41.784Z,95.80
2022-09-16T10:36:46.226Z,96.70
2022-09-16T10:41:51.130Z,97.70
2022-09-16T10:46:59.811Z,95.60
2022-09-16T10:52:24.683Z,98.80
2022-09-16T10:57:37.429Z,98.40
2022-09-16T11:03:10.910Z,98.50
2022-09-16T11:08:39.719Z,93.20
2022-09-16T11:14:00.904Z,91.70
2022-09-16T11:19:10.572Z,88.30
2022-09-16T11:24:27.760Z,87.20
2022-09-16T11:29:42.374Z,87.30
2022-09-16T11:55:18.516Z,83.70
2022-09-16T12:00:21.270Z,86.80
2022-09-16T12:05:26.859Z,88.10
2022-09-16T12:10:38.312Z,90.50
2022-09-16T12:16:15.579Z,85.60
2022-09-16T12:21:36.125Z,85.70
2022-09-16T12:26:43.424Z,81.60
2022-09-16T12:32:17.794Z,87.90
2022-09-16T12:37:39.363Z,85.20
2022-09-16T12:43:07.835Z,86.00
2022-09-16T12:48:34.870Z,77.80
2022-09-16T12:53:49.330Z,82.50
2022-09-16T12:59:16.926Z,84.80
2022-09-16T13:04:43.162Z,99.90
2022-09-16T13:09:47.658Z,99.90
2022-09-16T13:14:56.924Z,99.10
2022-09-16T13:20:17.781Z,99.90
2022-09-16T13:25:22.524Z,99.90
2022-09-16T13:30:38.723Z,99.90
2022-09-16T13:35:43.604Z,99.90
2022-09-16T13:41:00.715Z,99.90
2022-09-16T13:46:16.113Z,99.90
2022-09-16T13:51:23.943Z,99.90
2022-09-16T13:56:33.576Z,98.40
2022-09-16T14:02:01.543Z,93.20
2022-09-16T14:07:13.911Z,96.90
2022-09-16T14:12:29.612Z,91.90
2022-09-16T14:17:50.989Z,97.40
2022-09-16T14:23:16.863Z,97.10
2022-09-16T14:28:22.380Z,94.40
2022-09-16T14:33:41.649Z,95.40
2022-09-16T14:38:58.335Z,81.40
2022-09-16T14:44:17.278Z,91.60
2022-09-16T14:49:20.240Z,75.60
2022-09-16T14:54:24.737Z,78.80
2022-09-16T14:59:34.305Z,81.10
2022-09-16T15:04:40.872Z,76.90
2022-09-16T15:09:53.681Z,75.60
2022-09-16T15:14:56.997Z,74.00
2022-09-16T15:20:00.236Z,76.90
2022-09-16T15:25:21.671Z,73.00
2022-09-16T15:30:31.565Z,74.50
2022-09-16T15:35:49.656Z,77.20
2022-09-16T15:41:13.329Z,73.50
2022-09-16T15:46:22.175Z,71.20
2022-09-16T15:51:37.545Z,69.10
2022-09-16T15:56:58.154Z,68.50
2022-09-16T16:02:07.815Z,67.10
2022-09-16T16:07:15.567Z,68.40
2022-09-16T16:12:22.506Z,68.70
2022-09-16T16:17:26.215Z,68.00
2022-09-16T16:22:31.719Z,71.00
2022-09-16T16:27:34.772Z,72.40
2022-09-16T16:32:40.201Z,81.20
2022-09-16T16:37:47.113Z,81.00
2022-09-16T16:42:49.992Z,82.80
2022-09-16T16:47:53.302Z,84.00
2022-09-16T16:52:55.779Z,82.00
2022-09-16T16:57:58.123Z,81.40
2022-09-16T17:03:00.553Z,80.20
2022-09-16T17:08:03.034Z,79.60
2022-09-16T17:13:05.515Z,79.40
2022-09-16T17:18:07.924Z,80.00
2022-09-16T17:23:10.323Z,80.20
2022-09-16T17:28:12.713Z,80.60
2022-09-16T17:33:15.317Z,80.80
2022-09-16T17:38:17.759Z,81.00
2022-09-16T17:43:20.133Z,81.10
2022-09-16T17:48:22.585Z,82.10
2022-09-16T17:53:25.648Z,83.20
2022-09-16T17:58:27.986Z,84.00
2022-09-16T18:03:30.415Z,84.70
2022-09-16T18:08:32.935Z,84.70
2022-09-16T18:13:36.535Z,86.10
2022-09-16T18:18:41.186Z,84.40
2022-09-16T18:23:44.455Z,86.10
2022-09-16T18:29:08.704Z,86.60
2022-09-16T18:34:11.192Z,86.50
2022-09-16T18:39:16.630Z,87.30
2022-09-16T18:44:21.479Z,84.50
2022-09-16T18:49:28.072Z,88.20
2022-09-16T18:54:30.894Z,89.00
2022-09-16T18:59:34.591Z,89.60
2022-09-16T19:04:42.790Z,89.80
2022-09-16T19:09:46.038Z,90.10
2022-09-16T19:14:48.582Z,90.40
2022-09-16T19:19:51.328Z,90.30
2022-09-16T19:24:54.599Z,90.20
2022-09-16T19:29:56.984Z,90.30
2022-09-16T19:34:59.645Z,90.50
2022-09-16T19:40:02.330Z,90.60
2022-09-16T19:45:05.119Z,90.50
2022-09-16T19:50:07.733Z,97.10
2022-09-16T19:55:10.348Z,95.50
2022-09-16T20:00:16.155Z,94.00
2022-09-16T20:05:18.666Z,92.30
2022-09-16T20:10:22.034Z,91.30
2022-09-16T20:15:24.957Z,90.50
2022-09-16T20:20:27.649Z,90.20
2022-09-16T20:25:30.130Z,90.10
2022-09-16T20:30:32.562Z,90.00
2022-09-16T20:35:35.233Z,87.30
2022-09-16T20:40:37.695Z,88.70
2022-09-16T20:45:40.482Z,88.30
2022-09-16T20:50:43.209Z,87.80
2022-09-16T20:55:45.609Z,87.60
2022-09-16T21:00:48.263Z,87.60
2022-09-16T21:05:50.820Z,87.60
2022-09-16T21:10:53.425Z,87.80
2022-09-16T21:15:57.655Z,88.20
2022-09-16T21:21:14.528Z,88.50
2022-09-16T21:26:21.939Z,88.80
2022-09-16T21:31:26.249Z,89.00
2022-09-16T21:36:28.856Z,88.80
2022-09-16T21:41:31.440Z,89.10
2022-09-16T21:46:41.690Z,89.60
2022-09-16T21:51:44.275Z,89.50
2022-09-16T21:56:46.719Z,89.90
2022-09-16T22:01:50.881Z,90.50
2022-09-16T22:06:55.675Z,90.20
2022-09-16T22:11:58.105Z,90.00
2022-09-16T22:17:00.807Z,90.40
2022-09-16T22:22:03.383Z,90.30
2022-09-16T22:27:05.783Z,90.60
2022-09-16T22:32:08.251Z,90.30
2022-09-16T22:37:10.737Z,90.50
2022-09-16T22:42:13.268Z,90.40
2022-09-16T22:47:15.640Z,90.60
2022-09-16T22:52:18.095Z,90.50
2022-09-16T22:57:20.548Z,90.50
2022-09-16T23:02:23.475Z,90.60
2022-09-16T23:07:25.823Z,90.80
2022-09-16T23:12:28.595Z,90.90
2022-09-16T23:17:31.152Z,90.70
2022-09-16T23:22:33.705Z,90.80
2022-09-16T23:27:36.112Z,90.80
2022-09-16T23:32:38.555Z,90.90
2022-09-16T23:37:42.248Z,91.20
2022-09-16T23:42:44.656Z,91.10
2022-09-16T23:47:47.159Z,91.10
2022-09-16T23:52:59.078Z,91.70
2022-09-16T23:58:01.686Z,91.40
